sensor_id;sensor_type;location;lat;lon;timestamp;P1;durP1;ratioP1;P2;durP2;ratioP2
84889;SDS011;75153;52.222;5.160;2024-01-27T00:01:20;11.30;;;2.30;;
84889;SDS011;75153;52.222;5.160;2024-01-27T00:03:46;15.33;;;2.80;;
84889;SDS011;75153;52.222;5.160;2024-01-27T00:06:11;11.97;;;2.40;;
84889;SDS011;75153;52.222;5.160;2024-01-27T00:08:37;14.77;;;2.77;;
84889;SDS011;75153;52.222;5.160;2024-01-27T00:11:02;16.08;;;2.40;;
84889;SDS011;75153;52.222;5.160;2024-01-27T00:13:28;11.27;;;2.20;;
84889;SDS011;75153;52.222;5.160;2024-01-27T00:15:53;11.17;;;2.57;;
84889;SDS011;75153;52.222;5.160;2024-01-27T00:18:19;8.45;;;2.08;;
84889;SDS011;75153;52.222;5.160;2024-01-27T00:20:45;12.15;;;2.30;;
84889;SDS011;75153;52.222;5.160;2024-01-27T00:23:11;12.93;;;2.43;;
84889;SDS011;75153;52.222;5.160;2024-01-27T00:25:36;13.97;;;2.43;;
84889;SDS011;75153;52.222;5.160;2024-01-27T00:28:02;8.97;;;2.27;;
84889;SDS011;75153;52.222;5.160;2024-01-27T00:30:27;9.57;;;2.47;;
84889;SDS011;75153;52.222;5.160;2024-01-27T00:32:53;13.30;;;2.70;;
84889;SDS011;75153;52.222;5.160;2024-01-27T00:35:18;6.67;;;2.40;;
84889;SDS011;75153;52.222;5.160;2024-01-27T00:37:43;7.93;;;2.40;;
84889;SDS011;75153;52.222;5.160;2024-01-27T00:40:09;11.63;;;2.93;;
84889;SDS011;75153;52.222;5.160;2024-01-27T00:42:36;13.30;;;2.50;;
84889;SDS011;75153;52.222;5.160;2024-01-27T00:45:03;18.30;;;4.03;;
84889;SDS011;75153;52.222;5.160;2024-01-27T00:47:29;11.85;;;2.55;;
84889;SDS011;75153;52.222;5.160;2024-01-27T00:49:55;10.23;;;2.25;;
84889;SDS011;75153;52.222;5.160;2024-01-27T00:52:21;10.93;;;2.30;;
84889;SDS011;75153;52.222;5.160;2024-01-27T00:54:46;13.07;;;2.00;;
84889;SDS011;75153;52.222;5.160;2024-01-27T00:57:11;8.97;;;1.80;;
84889;SDS011;75153;52.222;5.160;2024-01-27T00:59:37;13.30;;;2.53;;
84889;SDS011;75153;52.222;5.160;2024-01-27T01:02:04;10.15;;;2.58;;
84889;SDS011;75153;52.222;5.160;2024-01-27T01:04:29;11.93;;;2.53;;
84889;SDS011;75153;52.222;5.160;2024-01-27T01:06:55;9.53;;;2.33;;
84889;SDS011;75153;52.222;5.160;2024-01-27T01:09:20;11.97;;;2.17;;
84889;SDS011;75153;52.222;5.160;2024-01-27T01:11:46;14.13;;;2.40;;
84889;SDS011;75153;52.222;5.160;2024-01-27T01:14:11;9.73;;;1.93;;
84889;SDS011;75153;52.222;5.160;2024-01-27T01:16:36;9.83;;;2.30;;
84889;SDS011;75153;52.222;5.160;2024-01-27T01:19:02;10.97;;;2.73;;
84889;SDS011;75153;52.222;5.160;2024-01-27T01:21:27;8.70;;;2.47;;
84889;SDS011;75153;52.222;5.160;2024-01-27T01:23:53;10.25;;;2.40;;
84889;SDS011;75153;52.222;5.160;2024-01-27T01:26:19;12.77;;;2.53;;
84889;SDS011;75153;52.222;5.160;2024-01-27T01:28:44;15.13;;;2.60;;
84889;SDS011;75153;52.222;5.160;2024-01-27T01:31:09;10.18;;;2.42;;
84889;SDS011;75153;52.222;5.160;2024-01-27T01:33:35;9.80;;;2.55;;
84889;SDS011;75153;52.222;5.160;2024-01-27T01:36:00;13.57;;;2.53;;
84889;SDS011;75153;52.222;5.160;2024-01-27T01:38:26;12.93;;;3.40;;
84889;SDS011;75153;52.222;5.160;2024-01-27T01:40:51;14.17;;;2.53;;
84889;SDS011;75153;52.222;5.160;2024-01-27T01:43:16;10.83;;;2.70;;
84889;SDS011;75153;52.222;5.160;2024-01-27T01:45:42;13.20;;;3.37;;
84889;SDS011;75153;52.222;5.160;2024-01-27T01:48:07;15.48;;;2.40;;
84889;SDS011;75153;52.222;5.160;2024-01-27T01:50:33;10.87;;;2.77;;
84889;SDS011;75153;52.222;5.160;2024-01-27T01:52:59;8.48;;;2.35;;
84889;SDS011;75153;52.222;5.160;2024-01-27T01:55:25;6.90;;;2.05;;
84889;SDS011;75153;52.222;5.160;2024-01-27T01:57:51;11.00;;;2.83;;
84889;SDS011;75153;52.222;5.160;2024-01-27T02:00:16;8.43;;;2.20;;
84889;SDS011;75153;52.222;5.160;2024-01-27T02:02:43;17.95;;;3.13;;
84889;SDS011;75153;52.222;5.160;2024-01-27T02:05:10;10.87;;;2.20;;
84889;SDS011;75153;52.222;5.160;2024-01-27T02:07:36;11.32;;;2.10;;
84889;SDS011;75153;52.222;5.160;2024-01-27T02:10:02;15.93;;;2.40;;
84889;SDS011;75153;52.222;5.160;2024-01-27T02:12:27;10.02;;;2.85;;
84889;SDS011;75153;52.222;5.160;2024-01-27T02:14:53;7.93;;;2.07;;
84889;SDS011;75153;52.222;5.160;2024-01-27T02:17:18;14.07;;;2.50;;
84889;SDS011;75153;52.222;5.160;2024-01-27T02:19:43;10.87;;;2.67;;
84889;SDS011;75153;52.222;5.160;2024-01-27T02:22:09;8.13;;;2.07;;
84889;SDS011;75153;52.222;5.160;2024-01-27T02:24:34;11.27;;;2.53;;
84889;SDS011;75153;52.222;5.160;2024-01-27T02:26:59;9.53;;;2.23;;
84889;SDS011;75153;52.222;5.160;2024-01-27T02:29:25;10.93;;;2.30;;
84889;SDS011;75153;52.222;5.160;2024-01-27T02:31:52;9.63;;;2.33;;
84889;SDS011;75153;52.222;5.160;2024-01-27T02:34:18;11.43;;;2.10;;
84889;SDS011;75153;52.222;5.160;2024-01-27T02:36:43;14.10;;;2.23;;
84889;SDS011;75153;52.222;5.160;2024-01-27T02:39:09;14.10;;;2.50;;
84889;SDS011;75153;52.222;5.160;2024-01-27T02:41:34;9.13;;;2.05;;
84889;SDS011;75153;52.222;5.160;2024-01-27T02:44:04;14.68;;;2.35;;
84889;SDS011;75153;52.222;5.160;2024-01-27T02:46:32;8.80;;;2.13;;
84889;SDS011;75153;52.222;5.160;2024-01-27T02:48:57;8.10;;;2.08;;
84889;SDS011;75153;52.222;5.160;2024-01-27T02:51:22;10.73;;;2.30;;
84889;SDS011;75153;52.222;5.160;2024-01-27T02:53:48;6.43;;;2.00;;
84889;SDS011;75153;52.222;5.160;2024-01-27T02:56:15;12.63;;;2.57;;
84889;SDS011;75153;52.222;5.160;2024-01-27T02:58:41;13.25;;;2.63;;
84889;SDS011;75153;52.222;5.160;2024-01-27T03:01:07;12.37;;;2.73;;
84889;SDS011;75153;52.222;5.160;2024-01-27T03:03:32;9.68;;;2.40;;
84889;SDS011;75153;52.222;5.160;2024-01-27T03:05:58;9.80;;;2.23;;
84889;SDS011;75153;52.222;5.160;2024-01-27T03:08:23;13.50;;;2.40;;
84889;SDS011;75153;52.222;5.160;2024-01-27T03:10:48;10.93;;;2.20;;
84889;SDS011;75153;52.222;5.160;2024-01-27T03:13:14;10.47;;;1.97;;
84889;SDS011;75153;52.222;5.160;2024-01-27T03:15:39;9.83;;;1.83;;
84889;SDS011;75153;52.222;5.160;2024-01-27T03:18:07;7.60;;;1.80;;
84889;SDS011;75153;52.222;5.160;2024-01-27T03:20:33;9.60;;;1.93;;
84889;SDS011;75153;52.222;5.160;2024-01-27T03:22:58;11.80;;;2.30;;
84889;SDS011;75153;52.222;5.160;2024-01-27T03:25:24;10.60;;;1.80;;
84889;SDS011;75153;52.222;5.160;2024-01-27T03:27:51;7.45;;;2.03;;
84889;SDS011;75153;52.222;5.160;2024-01-27T03:30:16;9.23;;;1.90;;
84889;SDS011;75153;52.222;5.160;2024-01-27T03:32:42;10.95;;;2.50;;
84889;SDS011;75153;52.222;5.160;2024-01-27T03:35:07;13.93;;;2.00;;
84889;SDS011;75153;52.222;5.160;2024-01-27T03:37:33;8.10;;;1.73;;
84889;SDS011;75153;52.222;5.160;2024-01-27T03:39:59;12.18;;;2.60;;
84889;SDS011;75153;52.222;5.160;2024-01-27T03:42:25;13.80;;;2.23;;
84889;SDS011;75153;52.222;5.160;2024-01-27T03:44:51;9.00;;;1.50;;
84889;SDS011;75153;52.222;5.160;2024-01-27T03:47:17;11.63;;;2.40;;
84889;SDS011;75153;52.222;5.160;2024-01-27T03:49:42;12.25;;;1.75;;
84889;SDS011;75153;52.222;5.160;2024-01-27T03:52:08;7.40;;;1.50;;
84889;SDS011;75153;52.222;5.160;2024-01-27T03:54:37;14.50;;;1.93;;
84889;SDS011;75153;52.222;5.160;2024-01-27T03:57:02;8.98;;;1.40;;
84889;SDS011;75153;52.222;5.160;2024-01-27T03:59:28;10.75;;;1.58;;
84889;SDS011;75153;52.222;5.160;2024-01-27T04:01:53;11.67;;;1.60;;
84889;SDS011;75153;52.222;5.160;2024-01-27T04:04:19;10.70;;;1.80;;
84889;SDS011;75153;52.222;5.160;2024-01-27T04:06:44;8.83;;;1.70;;
84889;SDS011;75153;52.222;5.160;2024-01-27T04:09:09;5.07;;;2.13;;
84889;SDS011;75153;52.222;5.160;2024-01-27T04:11:35;8.47;;;1.80;;
84889;SDS011;75153;52.222;5.160;2024-01-27T04:14:04;14.27;;;2.38;;
84889;SDS011;75153;52.222;5.160;2024-01-27T04:16:30;14.05;;;1.85;;
84889;SDS011;75153;52.222;5.160;2024-01-27T04:18:55;9.17;;;1.60;;
84889;SDS011;75153;52.222;5.160;2024-01-27T04:21:21;8.73;;;2.03;;
84889;SDS011;75153;52.222;5.160;2024-01-27T04:23:46;10.57;;;2.53;;
84889;SDS011;75153;52.222;5.160;2024-01-27T04:26:12;8.83;;;1.50;;
84889;SDS011;75153;52.222;5.160;2024-01-27T04:28:37;13.10;;;1.80;;
84889;SDS011;75153;52.222;5.160;2024-01-27T04:31:03;10.50;;;2.03;;
84889;SDS011;75153;52.222;5.160;2024-01-27T04:33:28;6.40;;;1.48;;
84889;SDS011;75153;52.222;5.160;2024-01-27T04:35:54;6.03;;;1.80;;
84889;SDS011;75153;52.222;5.160;2024-01-27T04:38:19;8.60;;;2.17;;
84889;SDS011;75153;52.222;5.160;2024-01-27T04:40:44;9.37;;;2.43;;
84889;SDS011;75153;52.222;5.160;2024-01-27T04:43:14;6.97;;;2.03;;
84889;SDS011;75153;52.222;5.160;2024-01-27T04:45:40;6.97;;;2.03;;
84889;SDS011;75153;52.222;5.160;2024-01-27T04:48:06;11.97;;;2.67;;
84889;SDS011;75153;52.222;5.160;2024-01-27T04:50:31;15.13;;;2.70;;
84889;SDS011;75153;52.222;5.160;2024-01-27T04:52:57;9.33;;;2.43;;
84889;SDS011;75153;52.222;5.160;2024-01-27T04:55:22;13.32;;;3.03;;
84889;SDS011;75153;52.222;5.160;2024-01-27T04:57:47;12.10;;;3.00;;
84889;SDS011;75153;52.222;5.160;2024-01-27T05:00:13;11.53;;;3.00;;
84889;SDS011;75153;52.222;5.160;2024-01-27T05:02:39;10.97;;;3.20;;
84889;SDS011;75153;52.222;5.160;2024-01-27T05:05:06;16.35;;;3.63;;
84889;SDS011;75153;52.222;5.160;2024-01-27T05:07:32;9.32;;;3.20;;
84889;SDS011;75153;52.222;5.160;2024-01-27T05:09:57;9.60;;;3.70;;
84889;SDS011;75153;52.222;5.160;2024-01-27T05:12:23;17.03;;;4.20;;
84889;SDS011;75153;52.222;5.160;2024-01-27T05:14:48;15.10;;;4.13;;
84889;SDS011;75153;52.222;5.160;2024-01-27T05:17:14;13.93;;;4.23;;
84889;SDS011;75153;52.222;5.160;2024-01-27T05:19:39;12.30;;;4.40;;
84889;SDS011;75153;52.222;5.160;2024-01-27T05:22:05;13.18;;;4.35;;
84889;SDS011;75153;52.222;5.160;2024-01-27T05:24:30;12.33;;;4.67;;
84889;SDS011;75153;52.222;5.160;2024-01-27T05:26:55;9.07;;;4.40;;
84889;SDS011;75153;52.222;5.160;2024-01-27T05:29:21;11.70;;;4.57;;
84889;SDS011;75153;52.222;5.160;2024-01-27T05:31:47;16.38;;;5.28;;
84889;SDS011;75153;52.222;5.160;2024-01-27T05:34:12;12.80;;;4.40;;
84889;SDS011;75153;52.222;5.160;2024-01-27T05:36:38;15.43;;;5.40;;
84889;SDS011;75153;52.222;5.160;2024-01-27T05:39:04;17.17;;;5.43;;
84889;SDS011;75153;52.222;5.160;2024-01-27T05:41:30;12.43;;;4.80;;
84889;SDS011;75153;52.222;5.160;2024-01-27T05:43:56;13.10;;;5.40;;
84889;SDS011;75153;52.222;5.160;2024-01-27T05:46:24;16.67;;;6.30;;
84889;SDS011;75153;52.222;5.160;2024-01-27T05:48:50;15.10;;;6.25;;
84889;SDS011;75153;52.222;5.160;2024-01-27T05:51:18;15.60;;;6.20;;
84889;SDS011;75153;52.222;5.160;2024-01-27T05:53:44;17.13;;;6.10;;
84889;SDS011;75153;52.222;5.160;2024-01-27T05:56:10;14.85;;;6.18;;
84889;SDS011;75153;52.222;5.160;2024-01-27T05:58:35;10.57;;;5.00;;
84889;SDS011;75153;52.222;5.160;2024-01-27T06:01:00;11.97;;;5.70;;
84889;SDS011;75153;52.222;5.160;2024-01-27T06:03:26;11.37;;;5.73;;
84889;SDS011;75153;52.222;5.160;2024-01-27T06:05:51;16.60;;;5.80;;
84889;SDS011;75153;52.222;5.160;2024-01-27T06:08:17;12.77;;;5.20;;
84889;SDS011;75153;52.222;5.160;2024-01-27T06:10:43;11.80;;;4.90;;
84889;SDS011;75153;52.222;5.160;2024-01-27T06:13:08;14.15;;;5.97;;
84889;SDS011;75153;52.222;5.160;2024-01-27T06:15:34;14.90;;;5.93;;
84889;SDS011;75153;52.222;5.160;2024-01-27T06:17:59;13.47;;;5.57;;
84889;SDS011;75153;52.222;5.160;2024-01-27T06:20:24;11.60;;;5.37;;
84889;SDS011;75153;52.222;5.160;2024-01-27T06:22:50;16.00;;;5.90;;
84889;SDS011;75153;52.222;5.160;2024-01-27T06:25:17;14.07;;;4.82;;
84889;SDS011;75153;52.222;5.160;2024-01-27T06:27:42;13.53;;;6.03;;
84889;SDS011;75153;52.222;5.160;2024-01-27T06:30:08;20.77;;;7.80;;
84889;SDS011;75153;52.222;5.160;2024-01-27T06:32:35;14.10;;;6.03;;
84889;SDS011;75153;52.222;5.160;2024-01-27T06:35:00;17.10;;;6.00;;
84889;SDS011;75153;52.222;5.160;2024-01-27T06:37:26;13.32;;;5.05;;
84889;SDS011;75153;52.222;5.160;2024-01-27T06:39:51;13.37;;;6.00;;
84889;SDS011;75153;52.222;5.160;2024-01-27T06:42:16;11.00;;;5.33;;
84889;SDS011;75153;52.222;5.160;2024-01-27T06:44:42;17.50;;;5.90;;
84889;SDS011;75153;52.222;5.160;2024-01-27T06:47:07;14.00;;;6.07;;
84889;SDS011;75153;52.222;5.160;2024-01-27T06:49:32;13.40;;;5.77;;
84889;SDS011;75153;52.222;5.160;2024-01-27T06:51:58;13.97;;;5.07;;
84889;SDS011;75153;52.222;5.160;2024-01-27T06:54:25;20.42;;;6.15;;
84889;SDS011;75153;52.222;5.160;2024-01-27T06:56:50;15.23;;;5.63;;
84889;SDS011;75153;52.222;5.160;2024-01-27T06:59:16;20.52;;;5.75;;
84889;SDS011;75153;52.222;5.160;2024-01-27T07:01:47;14.80;;;6.10;;
84889;SDS011;75153;52.222;5.160;2024-01-27T07:04:16;11.70;;;5.43;;
84889;SDS011;75153;52.222;5.160;2024-01-27T07:06:42;12.70;;;5.80;;
84889;SDS011;75153;52.222;5.160;2024-01-27T07:09:08;12.13;;;5.50;;
84889;SDS011;75153;52.222;5.160;2024-01-27T07:11:34;13.10;;;5.80;;
84889;SDS011;75153;52.222;5.160;2024-01-27T07:14:03;13.98;;;5.55;;
84889;SDS011;75153;52.222;5.160;2024-01-27T07:16:29;16.90;;;6.70;;
84889;SDS011;75153;52.222;5.160;2024-01-27T07:18:55;13.83;;;6.10;;
84889;SDS011;75153;52.222;5.160;2024-01-27T07:21:20;10.90;;;4.60;;
84889;SDS011;75153;52.222;5.160;2024-01-27T07:23:46;11.65;;;5.57;;
84889;SDS011;75153;52.222;5.160;2024-01-27T07:26:11;13.93;;;6.00;;
84889;SDS011;75153;52.222;5.160;2024-01-27T07:28:37;15.97;;;6.53;;
84889;SDS011;75153;52.222;5.160;2024-01-27T07:31:03;14.63;;;6.75;;
84889;SDS011;75153;52.222;5.160;2024-01-27T07:33:29;18.17;;;6.17;;
84889;SDS011;75153;52.222;5.160;2024-01-27T07:35:54;17.48;;;5.88;;
84889;SDS011;75153;52.222;5.160;2024-01-27T07:38:19;19.27;;;6.90;;
84889;SDS011;75153;52.222;5.160;2024-01-27T07:40:45;22.90;;;7.13;;
84889;SDS011;75153;52.222;5.160;2024-01-27T07:43:10;16.20;;;6.47;;
84889;SDS011;75153;52.222;5.160;2024-01-27T07:45:35;16.47;;;5.70;;
84889;SDS011;75153;52.222;5.160;2024-01-27T07:48:01;14.57;;;6.47;;
84889;SDS011;75153;52.222;5.160;2024-01-27T07:50:26;17.45;;;6.30;;
84889;SDS011;75153;52.222;5.160;2024-01-27T07:52:52;15.00;;;5.77;;
84889;SDS011;75153;52.222;5.160;2024-01-27T07:55:17;14.87;;;6.00;;
84889;SDS011;75153;52.222;5.160;2024-01-27T07:57:43;12.13;;;6.20;;
84889;SDS011;75153;52.222;5.160;2024-01-27T08:00:08;13.17;;;5.80;;
84889;SDS011;75153;52.222;5.160;2024-01-27T08:02:34;12.13;;;6.07;;
84889;SDS011;75153;52.222;5.160;2024-01-27T08:04:59;14.93;;;5.70;;
84889;SDS011;75153;52.222;5.160;2024-01-27T08:07:25;14.27;;;6.00;;
84889;SDS011;75153;52.222;5.160;2024-01-27T08:09:50;13.43;;;6.18;;
84889;SDS011;75153;52.222;5.160;2024-01-27T08:12:15;14.80;;;6.30;;
84889;SDS011;75153;52.222;5.160;2024-01-27T08:14:41;17.40;;;7.00;;
84889;SDS011;75153;52.222;5.160;2024-01-27T08:17:06;16.83;;;6.67;;
84889;SDS011;75153;52.222;5.160;2024-01-27T08:19:32;12.23;;;6.30;;
84889;SDS011;75153;52.222;5.160;2024-01-27T08:21:57;14.77;;;6.47;;
84889;SDS011;75153;52.222;5.160;2024-01-27T08:24:23;13.38;;;5.97;;
84889;SDS011;75153;52.222;5.160;2024-01-27T08:26:49;13.87;;;6.20;;
84889;SDS011;75153;52.222;5.160;2024-01-27T08:29:15;11.77;;;5.70;;
84889;SDS011;75153;52.222;5.160;2024-01-27T08:31:41;15.10;;;6.15;;
84889;SDS011;75153;52.222;5.160;2024-01-27T08:34:06;12.00;;;5.60;;
84889;SDS011;75153;52.222;5.160;2024-01-27T08:36:32;19.93;;;7.03;;
84889;SDS011;75153;52.222;5.160;2024-01-27T08:38:59;13.65;;;5.57;;
84889;SDS011;75153;52.222;5.160;2024-01-27T08:41:25;13.23;;;5.93;;
84889;SDS011;75153;52.222;5.160;2024-01-27T08:43:50;11.85;;;5.57;;
84889;SDS011;75153;52.222;5.160;2024-01-27T08:46:16;14.13;;;6.43;;
84889;SDS011;75153;52.222;5.160;2024-01-27T08:48:44;14.63;;;7.40;;
84889;SDS011;75153;52.222;5.160;2024-01-27T08:51:10;27.33;;;9.67;;
84889;SDS011;75153;52.222;5.160;2024-01-27T08:53:36;14.52;;;6.40;;
84889;SDS011;75153;52.222;5.160;2024-01-27T08:56:02;13.13;;;6.37;;
84889;SDS011;75153;52.222;5.160;2024-01-27T08:58:28;17.30;;;6.03;;
84889;SDS011;75153;52.222;5.160;2024-01-27T09:00:53;14.85;;;5.88;;
84889;SDS011;75153;52.222;5.160;2024-01-27T09:03:18;14.80;;;6.60;;
84889;SDS011;75153;52.222;5.160;2024-01-27T09:05:46;12.97;;;5.90;;
84889;SDS011;75153;52.222;5.160;2024-01-27T09:08:11;12.60;;;6.45;;
84889;SDS011;75153;52.222;5.160;2024-01-27T09:10:37;14.38;;;6.65;;
84889;SDS011;75153;52.222;5.160;2024-01-27T09:13:03;15.60;;;6.40;;
84889;SDS011;75153;52.222;5.160;2024-01-27T09:15:29;15.35;;;5.53;;
84889;SDS011;75153;52.222;5.160;2024-01-27T09:17:55;11.57;;;5.63;;
84889;SDS011;75153;52.222;5.160;2024-01-27T09:20:20;11.47;;;6.13;;
84889;SDS011;75153;52.222;5.160;2024-01-27T09:22:46;14.03;;;6.13;;
84889;SDS011;75153;52.222;5.160;2024-01-27T09:25:12;14.63;;;7.10;;
84889;SDS011;75153;52.222;5.160;2024-01-27T09:27:38;12.93;;;5.72;;
84889;SDS011;75153;52.222;5.160;2024-01-27T09:30:04;15.37;;;6.77;;
84889;SDS011;75153;52.222;5.160;2024-01-27T09:32:30;15.00;;;7.28;;
84889;SDS011;75153;52.222;5.160;2024-01-27T09:34:55;16.57;;;6.90;;
84889;SDS011;75153;52.222;5.160;2024-01-27T09:37:21;14.90;;;5.87;;
84889;SDS011;75153;52.222;5.160;2024-01-27T09:39:46;12.30;;;7.00;;
84889;SDS011;75153;52.222;5.160;2024-01-27T09:42:13;25.05;;;8.45;;
84889;SDS011;75153;52.222;5.160;2024-01-27T09:44:45;24.17;;;7.37;;
84889;SDS011;75153;52.222;5.160;2024-01-27T09:47:14;14.60;;;6.43;;
84889;SDS011;75153;52.222;5.160;2024-01-27T09:49:40;16.50;;;6.28;;
84889;SDS011;75153;52.222;5.160;2024-01-27T09:52:07;17.95;;;8.18;;
84889;SDS011;75153;52.222;5.160;2024-01-27T09:54:33;14.45;;;6.85;;
84889;SDS011;75153;52.222;5.160;2024-01-27T09:56:59;15.70;;;6.30;;
84889;SDS011;75153;52.222;5.160;2024-01-27T09:59:26;11.77;;;6.90;;
84889;SDS011;75153;52.222;5.160;2024-01-27T10:01:52;16.75;;;6.93;;
84889;SDS011;75153;52.222;5.160;2024-01-27T10:04:19;18.85;;;6.90;;
84889;SDS011;75153;52.222;5.160;2024-01-27T10:06:45;15.35;;;6.60;;
84889;SDS011;75153;52.222;5.160;2024-01-27T10:09:13;18.40;;;6.03;;
84889;SDS011;75153;52.222;5.160;2024-01-27T10:11:39;18.30;;;6.35;;
84889;SDS011;75153;52.222;5.160;2024-01-27T10:14:10;16.25;;;6.82;;
84889;SDS011;75153;52.222;5.160;2024-01-27T10:16:42;12.30;;;6.90;;
84889;SDS011;75153;52.222;5.160;2024-01-27T10:19:12;17.20;;;6.05;;
84889;SDS011;75153;52.222;5.160;2024-01-27T10:21:42;13.50;;;5.68;;
84889;SDS011;75153;52.222;5.160;2024-01-27T10:24:08;15.27;;;5.95;;
84889;SDS011;75153;52.222;5.160;2024-01-27T10:26:34;16.30;;;6.40;;
84889;SDS011;75153;52.222;5.160;2024-01-27T10:29:00;11.88;;;5.28;;
84889;SDS011;75153;52.222;5.160;2024-01-27T10:31:27;24.10;;;7.20;;
84889;SDS011;75153;52.222;5.160;2024-01-27T10:33:53;20.98;;;7.07;;
84889;SDS011;75153;52.222;5.160;2024-01-27T10:36:19;16.38;;;6.00;;
84889;SDS011;75153;52.222;5.160;2024-01-27T10:38:45;10.83;;;5.47;;
84889;SDS011;75153;52.222;5.160;2024-01-27T10:41:10;12.38;;;4.95;;
84889;SDS011;75153;52.222;5.160;2024-01-27T10:43:36;18.70;;;5.50;;
84889;SDS011;75153;52.222;5.160;2024-01-27T10:46:06;17.60;;;6.15;;
84889;SDS011;75153;52.222;5.160;2024-01-27T10:48:33;18.87;;;6.80;;
84889;SDS011;75153;52.222;5.160;2024-01-27T10:51:01;14.43;;;5.25;;
84889;SDS011;75153;52.222;5.160;2024-01-27T10:53:32;16.77;;;6.45;;
84889;SDS011;75153;52.222;5.160;2024-01-27T10:56:00;12.70;;;5.60;;
84889;SDS011;75153;52.222;5.160;2024-01-27T10:58:26;19.38;;;6.10;;
84889;SDS011;75153;52.222;5.160;2024-01-27T11:00:53;18.80;;;5.83;;
84889;SDS011;75153;52.222;5.160;2024-01-27T11:03:21;17.40;;;6.25;;
84889;SDS011;75153;52.222;5.160;2024-01-27T11:05:49;15.95;;;5.20;;
84889;SDS011;75153;52.222;5.160;2024-01-27T11:08:16;14.18;;;5.32;;
84889;SDS011;75153;52.222;5.160;2024-01-27T11:10:44;15.63;;;6.35;;
84889;SDS011;75153;52.222;5.160;2024-01-27T11:13:10;16.67;;;6.40;;
84889;SDS011;75153;52.222;5.160;2024-01-27T11:15:36;16.67;;;6.47;;
84889;SDS011;75153;52.222;5.160;2024-01-27T11:18:01;13.57;;;5.27;;
84889;SDS011;75153;52.222;5.160;2024-01-27T11:20:32;12.52;;;5.40;;
84889;SDS011;75153;52.222;5.160;2024-01-27T11:23:11;14.45;;;5.60;;
84889;SDS011;75153;52.222;5.160;2024-01-27T11:25:39;15.67;;;5.40;;
84889;SDS011;75153;52.222;5.160;2024-01-27T11:28:15;11.30;;;4.70;;
84889;SDS011;75153;52.222;5.160;2024-01-27T11:30:46;13.55;;;5.20;;
84889;SDS011;75153;52.222;5.160;2024-01-27T11:33:12;13.57;;;5.05;;
84889;SDS011;75153;52.222;5.160;2024-01-27T11:35:37;14.17;;;5.63;;
84889;SDS011;75153;52.222;5.160;2024-01-27T11:38:03;11.37;;;4.57;;
84889;SDS011;75153;52.222;5.160;2024-01-27T11:40:28;14.30;;;4.13;;
84889;SDS011;75153;52.222;5.160;2024-01-27T11:42:58;16.13;;;5.32;;
84889;SDS011;75153;52.222;5.160;2024-01-27T11:45:24;11.48;;;3.80;;
84889;SDS011;75153;52.222;5.160;2024-01-27T11:47:50;14.03;;;4.80;;
84889;SDS011;75153;52.222;5.160;2024-01-27T11:50:19;15.88;;;4.78;;
84889;SDS011;75153;52.222;5.160;2024-01-27T11:52:45;15.48;;;4.65;;
84889;SDS011;75153;52.222;5.160;2024-01-27T11:55:11;13.73;;;4.30;;
84889;SDS011;75153;52.222;5.160;2024-01-27T11:57:36;11.83;;;3.80;;
84889;SDS011;75153;52.222;5.160;2024-01-27T12:00:02;14.30;;;4.38;;
84889;SDS011;75153;52.222;5.160;2024-01-27T12:02:31;15.38;;;4.20;;
84889;SDS011;75153;52.222;5.160;2024-01-27T12:04:57;12.90;;;4.65;;
84889;SDS011;75153;52.222;5.160;2024-01-27T12:07:22;11.27;;;3.92;;
84889;SDS011;75153;52.222;5.160;2024-01-27T12:09:48;12.20;;;3.33;;
84889;SDS011;75153;52.222;5.160;2024-01-27T12:12:15;12.40;;;4.13;;
84889;SDS011;75153;52.222;5.160;2024-01-27T12:14:42;11.95;;;3.85;;
84889;SDS011;75153;52.222;5.160;2024-01-27T12:17:12;15.00;;;3.38;;
84889;SDS011;75153;52.222;5.160;2024-01-27T12:19:38;13.77;;;3.60;;
84889;SDS011;75153;52.222;5.160;2024-01-27T12:22:04;11.40;;;3.72;;
84889;SDS011;75153;52.222;5.160;2024-01-27T12:24:30;12.18;;;3.20;;
84889;SDS011;75153;52.222;5.160;2024-01-27T12:26:59;13.75;;;3.67;;
84889;SDS011;75153;52.222;5.160;2024-01-27T12:29:24;15.35;;;4.03;;
84889;SDS011;75153;52.222;5.160;2024-01-27T12:31:50;13.03;;;3.60;;
84889;SDS011;75153;52.222;5.160;2024-01-27T12:34:17;14.18;;;3.67;;
84889;SDS011;75153;52.222;5.160;2024-01-27T12:36:43;8.68;;;2.97;;
84889;SDS011;75153;52.222;5.160;2024-01-27T12:39:09;11.55;;;2.90;;
84889;SDS011;75153;52.222;5.160;2024-01-27T12:41:35;14.93;;;3.30;;
84889;SDS011;75153;52.222;5.160;2024-01-27T12:44:01;11.10;;;3.10;;
84889;SDS011;75153;52.222;5.160;2024-01-27T12:46:29;19.92;;;3.90;;
84889;SDS011;75153;52.222;5.160;2024-01-27T12:48:55;12.47;;;3.80;;
84889;SDS011;75153;52.222;5.160;2024-01-27T12:51:20;14.95;;;3.03;;
84889;SDS011;75153;52.222;5.160;2024-01-27T12:53:46;10.97;;;2.97;;
84889;SDS011;75153;52.222;5.160;2024-01-27T12:56:12;9.57;;;3.17;;
84889;SDS011;75153;52.222;5.160;2024-01-27T12:58:39;11.88;;;3.70;;
84889;SDS011;75153;52.222;5.160;2024-01-27T13:01:05;12.00;;;3.05;;
84889;SDS011;75153;52.222;5.160;2024-01-27T13:03:31;12.77;;;3.70;;
84889;SDS011;75153;52.222;5.160;2024-01-27T13:05:57;11.25;;;2.90;;
84889;SDS011;75153;52.222;5.160;2024-01-27T13:08:22;15.33;;;3.40;;
84889;SDS011;75153;52.222;5.160;2024-01-27T13:10:48;11.13;;;3.20;;
84889;SDS011;75153;52.222;5.160;2024-01-27T13:13:14;8.80;;;2.55;;
84889;SDS011;75153;52.222;5.160;2024-01-27T13:15:40;10.18;;;2.90;;
84889;SDS011;75153;52.222;5.160;2024-01-27T13:18:05;10.43;;;3.17;;
84889;SDS011;75153;52.222;5.160;2024-01-27T13:20:31;12.80;;;2.60;;
84889;SDS011;75153;52.222;5.160;2024-01-27T13:22:58;12.77;;;3.30;;
84889;SDS011;75153;52.222;5.160;2024-01-27T13:25:24;10.82;;;3.17;;
84889;SDS011;75153;52.222;5.160;2024-01-27T13:27:50;14.35;;;3.28;;
84889;SDS011;75153;52.222;5.160;2024-01-27T13:30:15;14.53;;;3.47;;
84889;SDS011;75153;52.222;5.160;2024-01-27T13:32:44;12.85;;;3.00;;
84889;SDS011;75153;52.222;5.160;2024-01-27T13:35:10;10.70;;;3.63;;
84889;SDS011;75153;52.222;5.160;2024-01-27T13:37:35;11.30;;;3.43;;
84889;SDS011;75153;52.222;5.160;2024-01-27T13:40:01;13.57;;;3.65;;
84889;SDS011;75153;52.222;5.160;2024-01-27T13:42:28;16.02;;;3.72;;
84889;SDS011;75153;52.222;5.160;2024-01-27T13:44:54;12.37;;;3.53;;
84889;SDS011;75153;52.222;5.160;2024-01-27T13:47:19;12.38;;;3.33;;
84889;SDS011;75153;52.222;5.160;2024-01-27T13:49:45;10.57;;;3.23;;
84889;SDS011;75153;52.222;5.160;2024-01-27T13:52:10;18.60;;;4.70;;
84889;SDS011;75153;52.222;5.160;2024-01-27T13:54:36;13.95;;;4.07;;
84889;SDS011;75153;52.222;5.160;2024-01-27T13:57:02;10.65;;;3.40;;
84889;SDS011;75153;52.222;5.160;2024-01-27T13:59:28;18.33;;;4.60;;
84889;SDS011;75153;52.222;5.160;2024-01-27T14:01:53;16.85;;;4.57;;
84889;SDS011;75153;52.222;5.160;2024-01-27T14:04:20;14.38;;;3.70;;
84889;SDS011;75153;52.222;5.160;2024-01-27T14:06:45;11.63;;;3.23;;
84889;SDS011;75153;52.222;5.160;2024-01-27T14:09:11;13.40;;;3.70;;
84889;SDS011;75153;52.222;5.160;2024-01-27T14:11:38;10.75;;;3.25;;
84889;SDS011;75153;52.222;5.160;2024-01-27T14:14:03;10.23;;;3.20;;
84889;SDS011;75153;52.222;5.160;2024-01-27T14:16:29;13.80;;;3.70;;
84889;SDS011;75153;52.222;5.160;2024-01-27T14:18:54;17.58;;;4.28;;
84889;SDS011;75153;52.222;5.160;2024-01-27T14:21:20;10.50;;;3.17;;
84889;SDS011;75153;52.222;5.160;2024-01-27T14:23:45;15.17;;;4.70;;
84889;SDS011;75153;52.222;5.160;2024-01-27T14:26:10;14.23;;;5.03;;
84889;SDS011;75153;52.222;5.160;2024-01-27T14:28:42;14.80;;;5.30;;